Startpagina
METAR-TAF:

METAR-TAF

Vliegvelden :

Vlieland Heliport

Vlieland, Nederland

breedte: 53-15N, lengte: 004-55E, hoogte: 11 m

Actueel weer

Dit bericht is 11 minuten geleden gemaakt, om 16:55 UTC
Wind 8 kt uit het zuidwesten
Temperatuur 14°C
Vochtigheid 94%
Druk 1005 hPa
Zicht 10 km of meer
Verspreide wolken op 1300 ft
Geheel bewolkt op 1600 ft
zware motregen

METAR: EHVL 151655Z AUTO 23008KT 9999 +DZ SCT013 OVC016 14/13 Q1005 GRN

Tijdstip: 19:06 (17:06 UTC)


TAF: ontbreekt

Waarnemingen en weersverwachtingen van meer dan 4000 vliegvelden (METAR en TAF).

De beschikbare stations zijn de gele en rode punten op de kaart.

Ga met uw muis naar het station om de naam te zien.

Klik dan om waarnemingen en weersverwachtingen te zien.

kaart wijzigen: klik op de groene knoppen met een zwart kruis om in te zoomen, op de groene knop met een streepje om uit te zoomen of op de groene pijlen voor aangrenzende kaarten.


METAR-TAF: